Time;durP1;ratioP1;P1;durP2;ratioP2;P2;SDS_P1;SDS_P2;PMS_P1;PMS_P2;Temp;Humidity;BMP_temperature;BMP_pressure;BME280_temperature;BME280_humidity;BME280_pressure;Samples;Min_cycle;Max_cycle;Signal;HPM_P1;HPM_P2
2022/07/04 00:00:09;;;;;;;144.23;129.67;;;15.90;99.90;;;;;;5084136;28;20184;-67
2022/07/04 00:02:40;;;;;;;147.57;133.63;;;16.00;99.90;;;;;;5081782;28;20203;-65
2022/07/04 00:05:10;;;;;;;146.33;132.17;;;16.00;99.90;;;;;;5086221;28;20180;-65
2022/07/04 00:07:42;;;;;;;147.43;133.40;;;16.00;99.90;;;;;;5081360;28;20170;-67
2022/07/04 00:10:10;;;;;;;149.43;135.27;;;15.90;99.90;;;;;;5075074;28;20176;-67
2022/07/04 00:12:38;;;;;;;144.27;130.30;;;15.90;99.90;;;;;;5082490;28;20703;-65
2022/07/04 00:15:07;;;;;;;143.33;129.63;;;16.00;99.90;;;;;;5083333;28;20188;-65
2022/07/04 00:17:36;;;;;;;150.73;136.83;;;16.00;99.90;;;;;;5065002;28;20273;-66
2022/07/04 00:20:05;;;;;;;137.30;123.90;;;16.00;99.90;;;;;;5064872;28;20658;-66
2022/07/04 00:22:33;;;;;;;144.30;130.53;;;16.10;99.90;;;;;;5075206;28;20172;-65
2022/07/04 00:25:01;;;;;;;149.67;135.43;;;16.10;99.90;;;;;;5072519;28;20186;-65
2022/07/04 00:27:29;;;;;;;149.93;135.33;;;16.10;99.90;;;;;;5051092;28;20242;-66
2022/07/04 00:29:57;;;;;;;143.37;129.97;;;16.10;99.90;;;;;;5053671;28;20188;-66
2022/07/04 00:32:25;;;;;;;141.23;127.60;;;16.20;99.90;;;;;;5057547;28;20218;-67
2022/07/04 00:34:52;;;;;;;145.13;131.37;;;16.20;99.90;;;;;;5057638;28;20190;-66
2022/07/04 00:37:20;;;;;;;145.97;132.03;;;16.20;99.90;;;;;;5052110;28;20184;-65
2022/07/04 00:39:48;;;;;;;140.00;127.80;;;16.20;99.90;;;;;;5052294;28;20184;-64
2022/07/04 00:42:16;;;;;;;137.03;125.33;;;15.50;99.90;;;;;;5052258;28;20184;-65
2022/07/04 00:44:44;;;;;;;157.60;144.17;;;15.20;99.90;;;;;;5051188;28;20238;-66
2022/07/04 00:47:11;;;;;;;167.00;152.13;;;15.10;99.90;;;;;;5052215;28;20183;-67
2022/07/04 00:49:40;;;;;;;163.57;148.27;;;15.30;99.90;;;;;;5051881;28;20212;-65
2022/07/04 00:52:09;;;;;;;154.13;139.57;;;15.60;99.90;;;;;;5051975;28;20317;-67
2022/07/04 00:54:36;;;;;;;154.37;139.80;;;15.80;99.90;;;;;;5052042;28;20658;-67
2022/07/04 00:57:04;;;;;;;157.53;142.63;;;15.80;99.90;;;;;;5052021;28;20199;-66
2022/07/04 00:59:32;;;;;;;152.70;138.40;;;15.80;99.90;;;;;;5051858;28;20180;-66
2022/07/04 01:01:59;;;;;;;148.23;133.87;;;15.80;99.90;;;;;;5051832;28;20185;-65
2022/07/04 01:04:27;;;;;;;139.47;125.87;;;15.70;99.90;;;;;;5054422;28;20322;-66
2022/07/04 01:06:55;;;;;;;134.97;121.87;;;15.70;99.90;;;;;;5071318;28;20555;-66
2022/07/04 01:09:23;;;;;;;136.00;122.53;;;15.70;99.90;;;;;;5070920;28;20317;-68
2022/07/04 01:11:51;;;;;;;133.90;120.60;;;15.70;99.90;;;;;;5070905;28;20289;-67
2022/07/04 01:14:20;;;;;;;140.17;126.17;;;15.80;99.90;;;;;;5070939;28;20236;-66
2022/07/04 01:16:47;;;;;;;134.80;121.70;;;15.80;99.90;;;;;;5071352;28;20561;-64
2022/07/04 01:19:15;;;;;;;138.80;124.90;;;15.70;99.90;;;;;;5071491;28;20214;-70
2022/07/04 01:21:43;;;;;;;137.37;123.77;;;15.70;99.90;;;;;;5071161;28;20227;-68
2022/07/04 01:24:13;;;;;;;134.40;121.20;;;15.70;99.90;;;;;;5070022;28;20333;-66
2022/07/04 01:26:41;;;;;;;136.00;122.70;;;15.60;99.90;;;;;;5066731;28;20581;-68
2022/07/04 01:29:09;;;;;;;131.07;118.13;;;15.70;99.90;;;;;;5091808;28;20194;-66
2022/07/04 01:31:36;;;;;;;134.37;120.77;;;15.70;99.90;;;;;;5091608;28;20219;-64
2022/07/04 01:34:04;;;;;;;130.53;117.93;;;15.70;99.90;;;;;;5055848;28;20209;-67
2022/07/04 01:36:32;;;;;;;125.33;112.97;;;15.60;99.90;;;;;;5071574;28;20187;-65
2022/07/04 01:39:02;;;;;;;126.13;113.83;;;15.70;99.90;;;;;;5071572;28;20660;-65
2022/07/04 01:41:39;;;;;;;125.70;112.70;;;15.70;99.90;;;;;;5071603;28;20724;-65
2022/07/04 01:44:06;;;;;;;126.03;113.13;;;15.70;99.90;;;;;;5085750;28;20970;-66
2022/07/04 01:46:34;;;;;;;130.63;117.40;;;15.70;99.90;;;;;;5091701;28;20569;-67
2022/07/04 01:49:02;;;;;;;124.37;111.33;;;15.70;99.90;;;;;;5091196;28;20189;-66
2022/07/04 01:51:29;;;;;;;133.60;119.67;;;15.80;99.90;;;;;;5091254;28;20221;-67
2022/07/04 01:53:57;;;;;;;150.07;135.70;;;15.80;99.90;;;;;;5085405;28;20320;-66
2022/07/04 01:56:25;;;;;;;138.60;125.00;;;16.00;99.90;;;;;;5091570;28;20178;-66
2022/07/04 01:58:52;;;;;;;144.87;130.10;;;16.00;99.90;;;;;;5091394;28;20187;-66
2022/07/04 02:01:29;;;;;;;145.50;131.20;;;16.00;99.90;;;;;;5091323;28;20181;-68
2022/07/04 02:04:02;;;;;;;153.13;138.13;;;16.10;99.90;;;;;;5088147;28;20270;-66
2022/07/04 02:06:30;;;;;;;146.47;132.67;;;16.20;99.90;;;;;;5080079;28;20245;-67
2022/07/04 02:09:16;;;;;;;149.67;135.57;;;16.10;99.90;;;;;;5082853;28;20235;-68
2022/07/04 02:14:32;;;;;;;161.83;146.07;;;16.10;99.90;;;;;;5081044;28;20221;-68
2022/07/04 02:17:00;;;;;;;155.30;139.87;;;16.10;99.90;;;;;;5079783;28;20274;-68
2022/07/04 02:19:29;;;;;;;152.00;137.00;;;16.00;99.90;;;;;;5062437;28;20584;-66
2022/07/04 02:21:57;;;;;;;160.10;144.40;;;16.00;99.90;;;;;;5081764;28;20191;-69
2022/07/04 02:24:25;;;;;;;158.13;142.43;;;15.90;99.90;;;;;;5080757;28;20187;-68
2022/07/04 02:26:52;;;;;;;154.23;138.83;;;15.90;99.90;;;;;;5079944;28;20212;-68
2022/07/04 02:29:20;;;;;;;150.27;135.07;;;15.80;99.90;;;;;;5079793;28;20253;-69
2022/07/04 02:31:48;;;;;;;152.17;137.20;;;15.80;99.90;;;;;;5062231;28;20232;-68
2022/07/04 02:34:15;;;;;;;150.17;135.47;;;15.80;99.90;;;;;;5082719;28;20175;-66
2022/07/04 02:36:43;;;;;;;148.67;134.40;;;15.80;99.90;;;;;;5083525;28;20176;-70
2022/07/04 02:39:11;;;;;;;151.63;136.67;;;15.80;99.90;;;;;;5083797;28;20178;-69
2022/07/04 02:41:39;;;;;;;146.30;131.60;;;15.80;99.90;;;;;;5066919;28;20183;-69
2022/07/04 02:44:06;;;;;;;139.03;125.13;;;15.80;99.90;;;;;;5079816;28;20180;-67
2022/07/04 02:46:34;;;;;;;141.67;127.70;;;15.90;99.90;;;;;;5056390;28;20189;-67
2022/07/04 02:49:03;;;;;;;142.93;129.17;;;15.90;99.90;;;;;;5074479;28;20545;-69
2022/07/04 02:51:31;;;;;;;147.67;133.37;;;15.80;99.90;;;;;;5056296;28;20234;-67
2022/07/04 02:53:59;;;;;;;141.77;128.27;;;15.80;99.90;;;;;;5074378;28;20656;-68
2022/07/04 02:56:27;;;;;;;142.57;129.07;;;15.90;99.90;;;;;;5074213;28;20180;-67
2022/07/04 02:58:54;;;;;;;138.40;124.83;;;16.00;99.90;;;;;;5074226;28;20174;-67
2022/07/04 03:01:22;;;;;;;131.13;118.17;;;16.10;99.90;;;;;;5079993;28;20645;-67
2022/07/04 03:03:50;;;;;;;133.10;120.00;;;16.10;99.90;;;;;;5094312;28;20637;-67
2022/07/04 03:06:18;;;;;;;139.80;126.60;;;16.10;99.90;;;;;;5094158;28;20234;-65
2022/07/04 03:08:46;;;;;;;139.97;126.93;;;16.10;99.90;;;;;;5094211;28;20656;-67
2022/07/04 03:11:13;;;;;;;158.70;144.23;;;16.20;99.90;;;;;;5093949;28;20691;-67
2022/07/04 03:13:41;;;;;;;154.70;140.23;;;16.20;99.90;;;;;;5092434;28;20234;-68
2022/07/04 03:16:09;;;;;;;155.10;140.73;;;16.40;99.90;;;;;;5093360;28;20194;-68
2022/07/04 03:18:38;;;;;;;158.33;143.93;;;16.50;99.90;;;;;;5093691;28;20641;-69
2022/07/04 03:21:06;;;;;;;162.57;148.07;;;16.40;99.90;;;;;;5090338;28;20640;-65
2022/07/04 03:23:34;;;;;;;162.30;147.77;;;16.20;99.90;;;;;;5094008;28;20690;-65
2022/07/04 03:26:03;;;;;;;162.50;147.80;;;16.10;99.90;;;;;;5093787;28;20227;-66
2022/07/04 03:28:30;;;;;;;163.10;148.20;;;16.10;99.90;;;;;;5093663;28;20226;-68
2022/07/04 03:30:58;;;;;;;161.87;147.00;;;16.10;99.90;;;;;;5093563;28;20223;-68
2022/07/04 03:33:26;;;;;;;154.17;139.97;;;16.00;99.90;;;;;;5092564;28;20187;-66
2022/07/04 03:35:54;;;;;;;159.67;145.17;;;15.90;99.90;;;;;;5092205;28;20190;-68
2022/07/04 03:38:21;;;;;;;156.30;141.70;;;15.80;99.90;;;;;;5093562;28;20551;-66
2022/07/04 03:40:49;;;;;;;162.20;147.13;;;15.90;99.90;;;;;;5093157;28;20183;-64
2022/07/04 03:43:17;;;;;;;162.50;147.70;;;15.90;99.90;;;;;;5093450;28;20231;-65
2022/07/04 03:45:44;;;;;;;167.27;152.07;;;15.70;99.90;;;;;;5086282;28;20634;-68
2022/07/04 03:48:12;;;;;;;163.03;148.13;;;15.50;99.90;;;;;;5064566;28;20186;-67
2022/07/04 03:50:40;;;;;;;161.53;146.40;;;15.50;99.90;;;;;;5083901;28;20171;-69
2022/07/04 03:53:08;;;;;;;156.70;142.00;;;15.50;99.90;;;;;;5082357;28;20215;-69
2022/07/04 03:55:36;;;;;;;166.00;150.00;;;15.50;99.90;;;;;;5092056;28;20206;-69
2022/07/04 03:58:04;;;;;;;163.30;148.10;;;15.60;99.90;;;;;;5093110;28;20176;-68
2022/07/04 04:00:32;;;;;;;168.77;152.87;;;15.50;99.90;;;;;;5093246;28;20177;-64
2022/07/04 04:03:00;;;;;;;184.97;167.93;;;15.30;99.90;;;;;;5092968;28;20186;-66
2022/07/04 04:05:30;;;;;;;187.60;170.37;;;15.30;99.90;;;;;;5076729;28;20183;-67
2022/07/04 04:07:59;;;;;;;179.37;162.83;;;15.20;99.90;;;;;;5081382;28;20209;-66
2022/07/04 04:10:30;;;;;;;176.63;160.27;;;15.20;99.90;;;;;;5081910;28;20229;-65
2022/07/04 04:12:58;;;;;;;175.13;158.93;;;15.20;99.90;;;;;;5083817;28;20222;-69
2022/07/04 04:15:26;;;;;;;178.73;162.57;;;15.30;99.90;;;;;;5084568;28;20181;-68
2022/07/04 04:17:54;;;;;;;182.60;165.80;;;15.40;99.90;;;;;;5082284;28;20534;-68
2022/07/04 04:20:21;;;;;;;266.10;244.50;;;15.40;99.90;;;;;;5075106;28;20271;-68
2022/07/04 04:22:50;;;;;;;192.63;175.17;;;15.40;99.90;;;;;;5083317;28;20187;-66
2022/07/04 04:25:18;;;;;;;194.13;176.73;;;15.30;99.90;;;;;;5075035;28;20280;-70
2022/07/04 04:27:46;;;;;;;195.47;177.90;;;15.20;99.90;;;;;;5080839;28;20253;-68
2022/07/04 04:30:14;;;;;;;189.17;172.37;;;15.10;99.90;;;;;;5083077;28;20591;-67
2022/07/04 04:32:41;;;;;;;185.47;168.37;;;15.10;99.90;;;;;;5087145;28;20257;-70
2022/07/04 04:35:09;;;;;;;178.73;162.30;;;15.10;99.90;;;;;;5074136;28;20214;-70
2022/07/04 04:37:37;;;;;;;176.80;160.30;;;15.00;99.90;;;;;;5092028;28;20197;-69
2022/07/04 04:40:06;;;;;;;172.67;157.00;;;14.90;99.90;;;;;;5091913;28;20187;-68
2022/07/04 04:42:36;;;;;;;170.60;154.90;;;14.80;99.90;;;;;;5092320;28;20224;-68
2022/07/04 04:45:04;;;;;;;180.67;164.57;;;14.80;99.90;;;;;;5086464;28;20183;-68
2022/07/04 04:47:32;;;;;;;174.10;158.27;;;14.80;99.90;;;;;;5081701;28;20232;-69
2022/07/04 04:50:00;;;;;;;180.60;164.53;;;14.80;99.90;;;;;;5083945;28;20195;-66
2022/07/04 04:52:28;;;;;;;266.47;245.60;;;14.70;99.90;;;;;;5091912;28;20680;-68
2022/07/04 04:54:56;;;;;;;181.17;164.87;;;14.70;99.90;;;;;;5091625;28;20273;-68
2022/07/04 04:57:23;;;;;;;269.40;248.20;;;14.80;99.90;;;;;;5091684;28;20184;-66
2022/07/04 04:59:51;;;;;;;175.10;158.90;;;14.90;99.90;;;;;;5091807;28;20224;-68
2022/07/04 05:02:19;;;;;;;176.30;160.10;;;14.90;99.90;;;;;;5092313;28;20181;-69
2022/07/04 05:04:47;;;;;;;240.63;220.73;;;14.90;99.90;;;;;;5091842;28;20277;-68
2022/07/04 05:07:14;;;;;;;260.00;239.37;;;14.90;99.90;;;;;;5091845;28;20190;-70
2022/07/04 05:09:42;;;;;;;168.47;152.97;;;14.70;99.90;;;;;;5092016;28;20227;-66
2022/07/04 05:12:10;;;;;;;165.23;150.20;;;14.80;99.90;;;;;;5091144;28;20218;-66
2022/07/04 05:14:37;;;;;;;174.50;158.23;;;14.70;99.90;;;;;;5092057;28;20188;-66
2022/07/04 05:17:05;;;;;;;178.80;162.20;;;14.70;99.90;;;;;;5091963;28;20314;-65
2022/07/04 05:19:33;;;;;;;172.00;156.13;;;14.70;99.90;;;;;;5091554;28;20624;-65
2022/07/04 05:22:00;;;;;;;181.80;164.70;;;14.60;99.90;;;;;;5091637;28;20742;-65
2022/07/04 05:24:28;;;;;;;192.17;174.73;;;14.60;99.90;;;;;;5091962;28;20178;-67
2022/07/04 05:26:56;;;;;;;189.73;172.70;;;14.60;99.90;;;;;;5091529;28;20718;-66
2022/07/04 05:29:24;;;;;;;188.57;171.67;;;14.60;99.90;;;;;;5091900;28;20177;-66
2022/07/04 05:31:51;;;;;;;185.40;169.00;;;14.60;99.90;;;;;;5072823;28;20226;-65
2022/07/04 05:34:19;;;;;;;181.93;165.73;;;14.60;99.90;;;;;;5091895;28;20165;-66
2022/07/04 05:36:47;;;;;;;183.27;166.97;;;14.60;99.90;;;;;;5091812;28;20640;-66
2022/07/04 05:39:14;;;;;;;222.43;204.20;;;14.60;99.90;;;;;;5091785;28;20256;-66
2022/07/04 05:41:42;;;;;;;297.07;274.63;;;14.60;99.90;;;;;;5091816;28;20833;-67
2022/07/04 05:44:10;;;;;;;183.37;167.27;;;14.50;99.90;;;;;;5091905;28;20193;-66
2022/07/04 05:46:38;;;;;;;214.97;197.07;;;14.50;99.90;;;;;;5091858;28;20183;-66
2022/07/04 05:49:05;;;;;;;184.07;168.10;;;14.50;99.90;;;;;;5091728;28;20659;-66
2022/07/04 05:51:33;;;;;;;182.33;166.33;;;14.50;99.90;;;;;;5091755;28;20198;-66
2022/07/04 05:54:01;;;;;;;185.33;168.97;;;14.50;99.90;;;;;;5091486;28;20194;-66
2022/07/04 05:56:30;;;;;;;179.83;163.83;;;14.50;99.90;;;;;;5091504;28;20229;-66
2022/07/04 05:58:58;;;;;;;187.00;170.50;;;14.50;99.90;;;;;;5091795;28;20172;-65
2022/07/04 06:01:25;;;;;;;178.50;162.30;;;14.50;99.90;;;;;;5091693;28;20170;-65
2022/07/04 06:03:53;;;;;;;188.83;171.80;;;14.50;99.90;;;;;;5073535;28;20635;-66
2022/07/04 06:06:21;;;;;;;184.13;167.67;;;14.50;99.90;;;;;;5091568;28;20185;-67
2022/07/04 06:08:48;;;;;;;182.00;165.60;;;14.60;99.90;;;;;;5091881;28;20559;-67
2022/07/04 06:11:18;;;;;;;178.70;162.43;;;14.60;99.90;;;;;;5095277;28;20296;-67
2022/07/04 06:13:46;;;;;;;173.03;157.10;;;14.60;99.90;;;;;;5095394;28;20175;-65
2022/07/04 06:16:13;;;;;;;181.23;164.70;;;14.60;99.90;;;;;;5095285;28;20174;-65
2022/07/04 06:18:41;;;;;;;177.47;161.07;;;14.70;99.90;;;;;;5095166;28;20538;-65
2022/07/04 06:21:09;;;;;;;174.83;158.33;;;14.60;99.90;;;;;;5095131;28;20214;-68
2022/07/04 06:23:37;;;;;;;173.47;157.27;;;14.60;99.90;;;;;;5095163;28;20257;-65
2022/07/04 06:26:05;;;;;;;174.53;158.47;;;14.60;99.90;;;;;;5095142;28;20179;-65
2022/07/04 06:28:33;;;;;;;169.07;153.47;;;14.60;99.90;;;;;;5095083;28;20219;-66
2022/07/04 06:31:00;;;;;;;168.57;153.23;;;14.60;99.90;;;;;;5076709;28;20179;-66
2022/07/04 06:33:28;;;;;;;168.80;153.10;;;14.60;99.90;;;;;;5094978;28;20618;-67
2022/07/04 06:35:56;;;;;;;171.43;155.73;;;14.60;99.90;;;;;;5094918;28;20266;-66
2022/07/04 06:38:29;;;;;;;163.83;148.53;;;14.50;99.90;;;;;;5094760;28;20183;-67
2022/07/04 06:40:59;;;;;;;166.30;151.23;;;14.50;99.90;;;;;;5094359;28;20174;-65
2022/07/04 06:43:27;;;;;;;176.03;160.37;;;14.50;99.90;;;;;;5094919;28;20190;-67
2022/07/04 06:45:55;;;;;;;170.50;155.00;;;14.60;99.90;;;;;;5094654;28;20227;-67
2022/07/04 06:48:23;;;;;;;171.03;155.50;;;14.60;99.90;;;;;;5088198;28;20204;-65
2022/07/04 06:50:50;;;;;;;239.17;220.17;;;14.70;99.90;;;;;;5093700;28;20185;-66
2022/07/04 06:53:18;;;;;;;191.07;174.47;;;14.70;99.90;;;;;;5093727;28;20223;-65
2022/07/04 06:55:46;;;;;;;173.07;157.20;;;14.80;99.90;;;;;;5082457;28;20195;-66
2022/07/04 06:58:13;;;;;;;179.77;163.57;;;14.80;99.90;;;;;;5074218;28;20175;-66
2022/07/04 07:00:42;;;;;;;180.47;163.77;;;14.80;99.90;;;;;;5092474;28;20277;-66
2022/07/04 07:03:10;;;;;;;169.83;153.87;;;14.80;99.90;;;;;;5076255;28;20177;-65
2022/07/04 07:05:38;;;;;;;172.83;156.73;;;14.80;99.90;;;;;;5094416;28;20567;-66
2022/07/04 07:08:07;;;;;;;179.80;163.53;;;14.80;99.90;;;;;;5093528;28;20956;-66
2022/07/04 07:10:35;;;;;;;187.63;170.67;;;14.80;99.90;;;;;;5093877;28;20611;-67
2022/07/04 07:13:03;;;;;;;194.70;177.40;;;14.80;99.90;;;;;;5093978;28;20629;-65
2022/07/04 07:15:35;;;;;;;191.60;174.50;;;14.80;99.90;;;;;;5094223;28;20660;-66
2022/07/04 07:18:04;;;;;;;200.80;183.23;;;14.70;99.90;;;;;;5093787;28;20179;-66
2022/07/04 07:20:31;;;;;;;202.93;185.10;;;14.70;99.90;;;;;;5093460;28;20182;-65
2022/07/04 07:23:02;;;;;;;217.87;198.83;;;14.70;99.90;;;;;;5094192;28;20178;-66
2022/07/04 07:25:30;;;;;;;229.57;209.00;;;14.70;99.90;;;;;;5094090;28;20174;-66
2022/07/04 07:27:58;;;;;;;234.27;214.23;;;14.60;99.90;;;;;;5088245;28;20234;-65
2022/07/04 07:30:26;;;;;;;240.43;220.50;;;14.60;99.90;;;;;;5085106;28;20948;-63
2022/07/04 07:32:54;;;;;;;258.67;237.67;;;14.30;99.90;;;;;;5093805;28;20308;-64
2022/07/04 07:35:22;;;;;;;268.57;247.27;;;14.10;99.90;;;;;;5075554;28;20186;-64
2022/07/04 07:37:50;;;;;;;281.07;259.07;;;13.90;99.90;;;;;;5093261;28;20175;-64
2022/07/04 07:40:18;;;;;;;277.70;255.50;;;13.80;99.90;;;;;;5087468;28;20179;-63
2022/07/04 07:42:46;;;;;;;287.57;264.33;;;13.70;99.90;;;;;;5082084;28;20191;-64
2022/07/04 07:45:13;;;;;;;296.13;271.73;;;13.70;99.90;;;;;;5084581;28;20543;-67
2022/07/04 07:47:41;;;;;;;295.33;271.70;;;13.60;99.90;;;;;;5087469;28;20191;-63
2022/07/04 07:50:09;;;;;;;301.60;277.87;;;13.60;99.90;;;;;;5081867;28;20185;-64
2022/07/04 07:52:37;;;;;;;303.37;279.33;;;13.50;99.90;;;;;;5083118;28;20199;-64
2022/07/04 07:55:06;;;;;;;304.83;280.33;;;13.40;99.90;;;;;;5084435;28;20254;-65
2022/07/04 07:57:34;;;;;;;284.10;260.80;;;13.40;99.90;;;;;;5083417;28;20300;-66
2022/07/04 08:00:03;;;;;;;276.73;254.20;;;13.40;99.90;;;;;;5085142;28;20186;-64
2022/07/04 08:05:16;;;;;;;289.63;266.13;;;13.30;99.90;;;;;;5093283;28;20200;-64
2022/07/04 08:07:44;;;;;;;296.17;272.60;;;13.40;99.90;;;;;;5093075;28;20637;-65
2022/07/04 08:10:12;;;;;;;285.97;262.93;;;13.40;99.90;;;;;;5092791;28;20195;-65
2022/07/04 08:12:39;;;;;;;285.50;261.83;;;13.40;99.90;;;;;;5093222;28;20245;-66
2022/07/04 08:15:07;;;;;;;303.53;278.23;;;13.40;99.90;;;;;;5092835;28;20178;-65
2022/07/04 08:17:36;;;;;;;285.67;262.37;;;13.30;99.90;;;;;;5092663;28;20187;-64
2022/07/04 08:20:07;;;;;;;288.93;265.50;;;13.30;99.90;;;;;;5092693;28;20272;-64
2022/07/04 08:22:35;;;;;;;291.60;267.93;;;13.30;99.90;;;;;;5092709;28;20185;-65
2022/07/04 08:25:03;;;;;;;294.10;270.37;;;13.30;99.90;;;;;;5092984;28;20174;-65
2022/07/04 08:27:30;;;;;;;302.40;278.30;;;13.30;99.90;;;;;;5092207;28;20225;-65
2022/07/04 08:29:59;;;;;;;300.73;276.70;;;13.30;99.90;;;;;;5092763;28;20185;-63
2022/07/04 08:32:26;;;;;;;299.07;275.07;;;13.30;99.90;;;;;;5092027;28;20676;-65
2022/07/04 08:34:57;;;;;;;288.97;265.47;;;13.30;99.90;;;;;;5092571;28;20217;-64
2022/07/04 08:37:24;;;;;;;296.20;272.40;;;13.40;99.90;;;;;;5092310;28;20174;-65
2022/07/04 08:39:52;;;;;;;293.63;269.63;;;13.40;99.90;;;;;;5092830;28;20198;-65
2022/07/04 08:42:22;;;;;;;284.83;261.07;;;13.40;99.90;;;;;;5092729;28;20176;-68
2022/07/04 08:44:51;;;;;;;288.40;264.90;;;13.60;99.90;;;;;;5092286;28;20185;-66
2022/07/04 08:47:22;;;;;;;277.83;254.53;;;13.70;99.90;;;;;;5092340;28;20217;-66
2022/07/04 08:49:59;;;;;;;291.60;267.53;;;13.70;99.90;;;;;;5092428;28;20298;-66
2022/07/04 08:52:40;;;;;;;288.83;264.23;;;13.60;99.90;;;;;;5092239;28;20740;-65
2022/07/04 09:00:45;;;;;;;301.23;276.57;;;13.40;99.90;;;;;;5092578;28;20197;-66
2022/07/04 09:03:13;;;;;;;302.37;278.00;;;13.30;99.90;;;;;;5092437;28;20183;-67
2022/07/04 09:05:41;;;;;;;300.23;275.93;;;13.30;99.90;;;;;;5091747;28;20212;-66
2022/07/04 09:08:09;;;;;;;304.73;279.97;;;13.30;99.90;;;;;;5091964;28;20188;-65
2022/07/04 09:10:37;;;;;;;301.47;276.73;;;13.40;99.90;;;;;;5092176;28;20263;-66
2022/07/04 09:13:07;;;;;;;299.93;275.47;;;13.30;99.90;;;;;;5074013;28;20310;-66
2022/07/04 09:15:36;;;;;;;300.10;275.80;;;13.30;99.90;;;;;;5092198;28;20542;-67
2022/07/04 09:18:04;;;;;;;294.53;270.33;;;13.30;99.90;;;;;;5091585;28;20205;-67
2022/07/04 09:20:33;;;;;;;313.87;288.63;;;13.40;99.90;;;;;;5091953;28;20174;-64
2022/07/04 09:23:04;;;;;;;302.77;278.13;;;13.40;99.90;;;;;;5092199;28;20297;-66
2022/07/04 09:25:31;;;;;;;286.17;262.27;;;13.50;99.90;;;;;;5070396;28;20822;-66
2022/07/04 09:28:01;;;;;;;284.80;260.87;;;13.50;99.90;;;;;;5088017;28;20344;-66
2022/07/04 09:30:29;;;;;;;296.73;271.83;;;13.60;99.90;;;;;;5091922;28;20188;-66
2022/07/04 09:33:00;;;;;;;289.73;264.73;;;13.80;99.90;;;;;;5091848;28;20281;-65
2022/07/04 09:35:31;;;;;;;299.50;274.20;;;13.80;99.90;;;;;;5092156;28;20174;-64
2022/07/04 09:38:00;;;;;;;292.47;267.80;;;13.80;99.90;;;;;;5091711;28;20661;-64
2022/07/04 09:40:33;;;;;;;282.30;258.17;;;13.80;99.90;;;;;;5091999;28;20196;-66
2022/07/04 09:43:11;;;;;;;283.93;259.27;;;13.80;99.90;;;;;;5092637;28;20208;-64
2022/07/04 09:45:55;;;;;;;288.80;264.40;;;13.80;99.90;;;;;;5077929;28;20175;-66
2022/07/04 09:48:23;;;;;;;289.10;264.33;;;13.90;99.90;;;;;;5095165;28;20179;-66
2022/07/04 09:50:51;;;;;;;288.10;263.53;;;13.90;99.90;;;;;;5095011;28;20615;-66
2022/07/04 09:53:19;;;;;;;323.53;294.10;;;13.90;99.90;;;;;;5095970;28;20220;-65
2022/07/04 09:55:47;;;;;;;306.67;279.97;;;14.00;99.90;;;;;;5096132;28;20175;-66
2022/07/04 09:58:16;;;;;;;293.67;266.90;;;13.90;99.90;;;;;;5113327;28;20178;-65
2022/07/04 10:00:49;;;;;;;276.67;252.17;;;13.80;99.90;;;;;;5092722;28;20222;-65
2022/07/04 10:03:18;;;;;;;286.87;263.07;;;13.90;99.90;;;;;;5094049;28;20175;-66
2022/07/04 10:06:04;;;;;;;278.53;254.70;;;13.80;99.90;;;;;;5093988;28;20174;-66
2022/07/04 10:08:33;;;;;;;277.87;254.37;;;13.70;99.90;;;;;;5095603;28;20291;-65
2022/07/04 10:11:03;;;;;;;269.80;246.83;;;13.70;99.90;;;;;;5077656;28;20202;-65
2022/07/04 10:13:31;;;;;;;261.60;239.27;;;13.70;99.90;;;;;;5095859;28;20198;-66
2022/07/04 10:15:59;;;;;;;259.03;236.83;;;13.70;99.90;;;;;;5095795;28;20180;-66
2022/07/04 10:18:28;;;;;;;253.37;231.87;;;13.60;99.90;;;;;;5095977;28;20659;-65
2022/07/04 10:20:57;;;;;;;247.17;225.87;;;13.70;99.90;;;;;;5096482;28;20205;-66
2022/07/04 10:23:31;;;;;;;249.03;227.63;;;13.70;99.90;;;;;;5078316;28;20180;-66
2022/07/04 10:25:59;;;;;;;260.13;238.27;;;13.60;99.90;;;;;;5096617;28;20217;-67
2022/07/04 10:28:27;;;;;;;270.93;248.70;;;13.70;99.90;;;;;;5096437;28;20592;-66
2022/07/04 10:30:57;;;;;;;275.30;252.73;;;13.70;99.90;;;;;;5096191;28;20210;-66
2022/07/04 10:33:27;;;;;;;257.97;236.10;;;13.60;99.90;;;;;;5079218;28;20249;-66
2022/07/04 10:35:56;;;;;;;254.50;232.53;;;13.60;99.90;;;;;;5057944;28;20175;-65
2022/07/04 10:38:24;;;;;;;265.83;243.27;;;13.60;99.90;;;;;;5075863;28;20183;-65
2022/07/04 10:40:56;;;;;;;275.67;252.80;;;13.60;99.90;;;;;;5075895;28;20257;-66
2022/07/04 10:43:41;;;;;;;263.97;241.90;;;13.60;99.90;;;;;;5076036;28;20171;-66
2022/07/04 10:46:23;;;;;;;254.77;233.33;;;13.60;99.90;;;;;;5084215;28;20269;-66
2022/07/04 10:49:02;;;;;;;283.87;260.37;;;13.60;99.90;;;;;;5093776;28;20269;-66
2022/07/04 10:51:39;;;;;;;281.07;257.53;;;13.60;99.90;;;;;;5095811;28;20200;-65
2022/07/04 10:54:11;;;;;;;271.37;248.07;;;13.60;99.90;;;;;;5088474;28;20197;-67
2022/07/04 10:56:45;;;;;;;260.87;238.17;;;13.60;99.90;;;;;;5078676;28;20268;-66
2022/07/04 10:59:21;;;;;;;263.50;241.00;;;13.60;99.90;;;;;;5084680;28;20186;-66
2022/07/04 11:02:09;;;;;;;271.07;248.20;;;13.60;99.90;;;;;;5075702;28;20188;-67
2022/07/04 11:04:56;;;;;;;270.63;248.00;;;13.50;99.90;;;;;;5041430;28;20202;-66
2022/07/04 11:07:43;;;;;;;272.63;249.70;;;13.60;99.90;;;;;;5075374;28;20176;-66
2022/07/04 11:10:21;;;;;;;271.90;249.07;;;13.50;99.90;;;;;;5075739;28;20191;-65
2022/07/04 11:12:57;;;;;;;272.60;250.00;;;13.50;99.90;;;;;;5074408;28;20210;-66
2022/07/04 11:15:33;;;;;;;272.07;249.57;;;13.60;99.90;;;;;;5074296;28;20224;-66
2022/07/04 11:18:10;;;;;;;274.73;251.73;;;13.60;99.90;;;;;;5074053;28;20179;-66
2022/07/04 11:20:43;;;;;;;283.40;259.73;;;13.70;99.90;;;;;;5074236;28;20170;-67
2022/07/04 11:23:12;;;;;;;289.97;265.60;;;13.80;99.90;;;;;;5073963;28;20192;-66
2022/07/04 11:25:42;;;;;;;285.20;260.53;;;13.80;99.90;;;;;;5074084;28;20648;-66
2022/07/04 11:28:40;;;;;;;272.70;248.10;;;14.00;99.90;;;;;;5074731;28;20322;-67
2022/07/04 11:31:09;;;;;;;263.87;240.03;;;14.10;99.90;;;;;;5055922;28;20282;-65
2022/07/04 11:33:39;;;;;;;262.23;237.90;;;14.20;99.90;;;;;;5074833;28;20202;-66
2022/07/04 11:36:17;;;;;;;271.33;246.33;;;14.20;99.90;;;;;;5074743;28;20239;-66
2022/07/04 11:38:55;;;;;;;285.97;260.70;;;14.20;99.90;;;;;;5075038;28;20187;-66
2022/07/04 11:47:22;;;;;;;270.90;246.93;;;14.20;99.90;;;;;;5075224;28;20193;-66
2022/07/04 11:49:52;;;;;;;269.83;245.63;;;14.20;99.90;;;;;;5074716;28;20185;-65
2022/07/04 11:52:22;;;;;;;274.50;250.20;;;14.30;99.90;;;;;;5074781;28;20301;-66
2022/07/04 11:54:52;;;;;;;293.27;267.57;;;14.30;99.90;;;;;;5075291;28;20505;-66
2022/07/04 11:57:20;;;;;;;284.37;259.60;;;14.30;99.90;;;;;;5074282;28;20240;-66
2022/07/04 11:59:59;;;;;;;283.40;258.37;;;14.20;99.90;;;;;;5074564;28;20197;-66
2022/07/04 12:02:27;;;;;;;272.93;248.67;;;14.20;99.90;;;;;;5074666;28;20178;-67
2022/07/04 12:04:57;;;;;;;266.60;241.80;;;14.30;99.90;;;;;;5056878;28;20606;-67
2022/07/04 12:07:32;;;;;;;280.00;254.63;;;14.30;99.90;;;;;;5073404;28;20182;-64
2022/07/04 12:10:09;;;;;;;271.87;247.13;;;14.30;99.90;;;;;;5074363;28;20187;-64
2022/07/04 12:12:50;;;;;;;289.40;263.53;;;14.30;99.90;;;;;;5091219;28;20213;-67
2022/07/04 12:15:18;;;;;;;289.23;263.93;;;14.30;99.90;;;;;;5094374;28;20173;-67
2022/07/04 12:17:49;;;;;;;301.67;275.77;;;14.30;99.90;;;;;;5094515;28;20592;-67
2022/07/04 12:20:18;;;;;;;302.17;275.70;;;14.10;99.90;;;;;;5093508;28;20181;-65
2022/07/04 12:22:51;;;;;;;290.60;265.10;;;14.10;99.90;;;;;;5093424;28;20185;-66
2022/07/04 12:25:34;;;;;;;288.17;262.57;;;14.10;99.90;;;;;;5094057;28;20310;-66
2022/07/04 12:28:13;;;;;;;277.73;252.67;;;14.00;99.90;;;;;;4997327;27;3819649;-67
2022/07/04 12:30:51;;;;;;;292.87;267.10;;;14.00;99.90;;;;;;5110643;28;20186;-66
2022/07/04 12:33:21;;;;;;;277.77;252.93;;;14.00;99.90;;;;;;5070717;28;20305;-66
2022/07/04 12:35:56;;;;;;;302.03;275.60;;;14.00;99.90;;;;;;5103433;28;20185;-66